sensor_id;sensor_type;location;lat;lon;timestamp;P1;durP1;ratioP1;P2;durP2;ratioP2
37453;SDS011;23315;52.078;4.756;2024-03-08T00:01:39;49.03;;;25.05;;
37453;SDS011;23315;52.078;4.756;2024-03-08T00:04:04;43.25;;;23.92;;
37453;SDS011;23315;52.078;4.756;2024-03-08T00:06:31;43.45;;;24.10;;
37453;SDS011;23315;52.078;4.756;2024-03-08T00:08:57;49.63;;;25.80;;
37453;SDS011;23315;52.078;4.756;2024-03-08T00:11:22;41.70;;;23.73;;
37453;SDS011;23315;52.078;4.756;2024-03-08T00:13:51;47.53;;;25.00;;
37453;SDS011;23315;52.078;4.756;2024-03-08T00:16:17;44.50;;;23.60;;
37453;SDS011;23315;52.078;4.756;2024-03-08T00:18:44;47.38;;;26.02;;
37453;SDS011;23315;52.078;4.756;2024-03-08T00:21:09;47.85;;;24.52;;
37453;SDS011;23315;52.078;4.756;2024-03-08T00:23:36;44.30;;;25.50;;
37453;SDS011;23315;52.078;4.756;2024-03-08T00:26:02;47.67;;;24.30;;
37453;SDS011;23315;52.078;4.756;2024-03-08T00:28:29;45.00;;;24.73;;
37453;SDS011;23315;52.078;4.756;2024-03-08T00:30:55;49.63;;;24.55;;
37453;SDS011;23315;52.078;4.756;2024-03-08T00:33:21;42.83;;;23.67;;
37453;SDS011;23315;52.078;4.756;2024-03-08T00:35:46;42.85;;;24.38;;
37453;SDS011;23315;52.078;4.756;2024-03-08T00:38:14;40.60;;;24.00;;
37453;SDS011;23315;52.078;4.756;2024-03-08T00:40:40;48.53;;;23.40;;
37453;SDS011;23315;52.078;4.756;2024-03-08T00:43:05;43.05;;;22.83;;
37453;SDS011;23315;52.078;4.756;2024-03-08T00:45:31;37.65;;;22.27;;
37453;SDS011;23315;52.078;4.756;2024-03-08T00:47:56;50.33;;;24.90;;
37453;SDS011;23315;52.078;4.756;2024-03-08T00:50:21;42.63;;;21.50;;
37453;SDS011;23315;52.078;4.756;2024-03-08T00:52:47;42.50;;;23.20;;
37453;SDS011;23315;52.078;4.756;2024-03-08T00:55:12;38.00;;;21.85;;
37453;SDS011;23315;52.078;4.756;2024-03-08T00:57:38;46.53;;;23.40;;
37453;SDS011;23315;52.078;4.756;2024-03-08T01:00:04;43.17;;;24.63;;
37453;SDS011;23315;52.078;4.756;2024-03-08T01:02:34;48.47;;;22.65;;
37453;SDS011;23315;52.078;4.756;2024-03-08T01:05:00;46.85;;;23.25;;
37453;SDS011;23315;52.078;4.756;2024-03-08T01:07:26;45.03;;;22.38;;
37453;SDS011;23315;52.078;4.756;2024-03-08T01:09:51;40.75;;;23.15;;
37453;SDS011;23315;52.078;4.756;2024-03-08T01:12:17;42.42;;;22.67;;
37453;SDS011;23315;52.078;4.756;2024-03-08T01:14:42;41.17;;;22.63;;
37453;SDS011;23315;52.078;4.756;2024-03-08T01:17:08;42.17;;;23.13;;
37453;SDS011;23315;52.078;4.756;2024-03-08T01:19:34;41.60;;;21.50;;
37453;SDS011;23315;52.078;4.756;2024-03-08T01:22:00;39.35;;;23.55;;
37453;SDS011;23315;52.078;4.756;2024-03-08T01:24:25;35.25;;;21.77;;
37453;SDS011;23315;52.078;4.756;2024-03-08T01:26:50;35.35;;;21.88;;
37453;SDS011;23315;52.078;4.756;2024-03-08T01:29:19;40.78;;;21.83;;
37453;SDS011;23315;52.078;4.756;2024-03-08T01:31:44;45.63;;;22.73;;
37453;SDS011;23315;52.078;4.756;2024-03-08T01:34:09;35.20;;;21.45;;
37453;SDS011;23315;52.078;4.756;2024-03-08T01:36:35;41.08;;;22.48;;
37453;SDS011;23315;52.078;4.756;2024-03-08T01:39:02;40.10;;;21.83;;
37453;SDS011;23315;52.078;4.756;2024-03-08T01:41:32;38.00;;;20.50;;
37453;SDS011;23315;52.078;4.756;2024-03-08T01:43:58;41.27;;;23.10;;
37453;SDS011;23315;52.078;4.756;2024-03-08T01:46:24;38.60;;;20.98;;
37453;SDS011;23315;52.078;4.756;2024-03-08T01:48:49;37.55;;;21.13;;
37453;SDS011;23315;52.078;4.756;2024-03-08T01:51:15;40.65;;;23.30;;
37453;SDS011;23315;52.078;4.756;2024-03-08T01:53:41;39.58;;;21.75;;
37453;SDS011;23315;52.078;4.756;2024-03-08T01:56:08;46.90;;;23.20;;
37453;SDS011;23315;52.078;4.756;2024-03-08T01:58:33;36.88;;;21.92;;
37453;SDS011;23315;52.078;4.756;2024-03-08T02:01:00;38.42;;;22.50;;
37453;SDS011;23315;52.078;4.756;2024-03-08T02:03:29;36.53;;;21.60;;
37453;SDS011;23315;52.078;4.756;2024-03-08T02:05:56;41.30;;;23.70;;
37453;SDS011;23315;52.078;4.756;2024-03-08T02:08:24;37.60;;;22.77;;
37453;SDS011;23315;52.078;4.756;2024-03-08T02:10:49;39.90;;;22.60;;
37453;SDS011;23315;52.078;4.756;2024-03-08T02:13:15;41.28;;;22.35;;
37453;SDS011;23315;52.078;4.756;2024-03-08T02:18:24;39.77;;;21.97;;
37453;SDS011;23315;52.078;4.756;2024-03-08T02:20:53;39.53;;;25.02;;
37453;SDS011;23315;52.078;4.756;2024-03-08T02:23:23;39.87;;;22.93;;
37453;SDS011;23315;52.078;4.756;2024-03-08T02:25:52;40.83;;;23.10;;
37453;SDS011;23315;52.078;4.756;2024-03-08T02:28:18;37.92;;;23.27;;
37453;SDS011;23315;52.078;4.756;2024-03-08T02:30:44;41.77;;;23.83;;
37453;SDS011;23315;52.078;4.756;2024-03-08T02:33:13;40.27;;;22.70;;
37453;SDS011;23315;52.078;4.756;2024-03-08T02:35:42;37.78;;;23.17;;
37453;SDS011;23315;52.078;4.756;2024-03-08T02:38:10;43.72;;;22.95;;
37453;SDS011;23315;52.078;4.756;2024-03-08T02:40:36;37.50;;;22.63;;
37453;SDS011;23315;52.078;4.756;2024-03-08T02:43:02;41.50;;;23.33;;
37453;SDS011;23315;52.078;4.756;2024-03-08T02:45:27;38.97;;;24.00;;
37453;SDS011;23315;52.078;4.756;2024-03-08T02:47:52;43.67;;;24.75;;
37453;SDS011;23315;52.078;4.756;2024-03-08T02:50:18;42.40;;;24.73;;
37453;SDS011;23315;52.078;4.756;2024-03-08T02:52:43;40.03;;;24.25;;
37453;SDS011;23315;52.078;4.756;2024-03-08T02:55:11;38.13;;;24.20;;
37453;SDS011;23315;52.078;4.756;2024-03-08T02:57:40;49.10;;;23.52;;
37453;SDS011;23315;52.078;4.756;2024-03-08T03:00:05;39.75;;;23.95;;
37453;SDS011;23315;52.078;4.756;2024-03-08T03:02:34;42.30;;;24.37;;
37453;SDS011;23315;52.078;4.756;2024-03-08T03:04:59;40.87;;;25.40;;
37453;SDS011;23315;52.078;4.756;2024-03-08T03:07:29;34.27;;;22.73;;
37453;SDS011;23315;52.078;4.756;2024-03-08T03:09:55;47.22;;;25.05;;
37453;SDS011;23315;52.078;4.756;2024-03-08T03:12:20;44.17;;;25.20;;
37453;SDS011;23315;52.078;4.756;2024-03-08T03:14:45;45.13;;;24.98;;
37453;SDS011;23315;52.078;4.756;2024-03-08T03:17:11;46.37;;;25.17;;
37453;SDS011;23315;52.078;4.756;2024-03-08T03:19:36;47.77;;;25.30;;
37453;SDS011;23315;52.078;4.756;2024-03-08T03:22:02;45.87;;;26.33;;
37453;SDS011;23315;52.078;4.756;2024-03-08T03:24:28;44.63;;;24.73;;
37453;SDS011;23315;52.078;4.756;2024-03-08T03:26:54;46.90;;;24.93;;
37453;SDS011;23315;52.078;4.756;2024-03-08T03:29:20;47.17;;;26.73;;
37453;SDS011;23315;52.078;4.756;2024-03-08T03:31:45;47.70;;;25.17;;
37453;SDS011;23315;52.078;4.756;2024-03-08T03:34:11;43.67;;;25.23;;
37453;SDS011;23315;52.078;4.756;2024-03-08T03:36:37;46.80;;;24.53;;
37453;SDS011;23315;52.078;4.756;2024-03-08T03:39:07;44.00;;;24.98;;
37453;SDS011;23315;52.078;4.756;2024-03-08T03:41:37;49.00;;;26.13;;
37453;SDS011;23315;52.078;4.756;2024-03-08T03:44:04;44.80;;;24.37;;
37453;SDS011;23315;52.078;4.756;2024-03-08T03:46:31;43.27;;;25.27;;
37453;SDS011;23315;52.078;4.756;2024-03-08T03:48:57;44.90;;;28.10;;
37453;SDS011;23315;52.078;4.756;2024-03-08T03:51:23;49.13;;;27.03;;
37453;SDS011;23315;52.078;4.756;2024-03-08T03:53:49;46.80;;;25.90;;
37453;SDS011;23315;52.078;4.756;2024-03-08T03:56:14;47.27;;;26.23;;
37453;SDS011;23315;52.078;4.756;2024-03-08T03:58:40;45.70;;;27.10;;
37453;SDS011;23315;52.078;4.756;2024-03-08T04:01:05;43.53;;;26.67;;
37453;SDS011;23315;52.078;4.756;2024-03-08T04:03:31;47.37;;;26.50;;
37453;SDS011;23315;52.078;4.756;2024-03-08T04:05:56;49.50;;;24.70;;
37453;SDS011;23315;52.078;4.756;2024-03-08T04:08:21;50.63;;;27.47;;
37453;SDS011;23315;52.078;4.756;2024-03-08T04:10:48;47.57;;;26.20;;
37453;SDS011;23315;52.078;4.756;2024-03-08T04:13:14;49.10;;;26.25;;
37453;SDS011;23315;52.078;4.756;2024-03-08T04:15:40;43.55;;;25.35;;
37453;SDS011;23315;52.078;4.756;2024-03-08T04:18:08;48.50;;;26.97;;
37453;SDS011;23315;52.078;4.756;2024-03-08T04:20:33;46.53;;;26.90;;
37453;SDS011;23315;52.078;4.756;2024-03-08T04:22:58;46.45;;;27.10;;
37453;SDS011;23315;52.078;4.756;2024-03-08T04:25:24;48.05;;;27.08;;
37453;SDS011;23315;52.078;4.756;2024-03-08T04:27:49;46.00;;;27.57;;
37453;SDS011;23315;52.078;4.756;2024-03-08T04:30:15;51.30;;;28.63;;
37453;SDS011;23315;52.078;4.756;2024-03-08T04:32:40;50.27;;;28.10;;
37453;SDS011;23315;52.078;4.756;2024-03-08T04:35:06;45.83;;;27.17;;
37453;SDS011;23315;52.078;4.756;2024-03-08T04:37:33;44.47;;;26.83;;
37453;SDS011;23315;52.078;4.756;2024-03-08T04:39:59;45.30;;;28.03;;
37453;SDS011;23315;52.078;4.756;2024-03-08T04:42:24;46.28;;;26.20;;
37453;SDS011;23315;52.078;4.756;2024-03-08T04:44:51;47.07;;;28.03;;
37453;SDS011;23315;52.078;4.756;2024-03-08T04:47:18;48.33;;;26.65;;
37453;SDS011;23315;52.078;4.756;2024-03-08T04:49:44;51.93;;;26.93;;
37453;SDS011;23315;52.078;4.756;2024-03-08T04:52:09;47.20;;;26.00;;
37453;SDS011;23315;52.078;4.756;2024-03-08T04:54:34;46.83;;;26.30;;
37453;SDS011;23315;52.078;4.756;2024-03-08T04:57:00;49.97;;;28.43;;
37453;SDS011;23315;52.078;4.756;2024-03-08T04:59:26;49.67;;;27.77;;
37453;SDS011;23315;52.078;4.756;2024-03-08T05:01:52;43.47;;;26.42;;
37453;SDS011;23315;52.078;4.756;2024-03-08T05:04:17;47.93;;;26.97;;
37453;SDS011;23315;52.078;4.756;2024-03-08T05:06:43;44.13;;;27.13;;
37453;SDS011;23315;52.078;4.756;2024-03-08T05:09:08;41.50;;;25.57;;
37453;SDS011;23315;52.078;4.756;2024-03-08T05:11:44;48.73;;;27.10;;
37453;SDS011;23315;52.078;4.756;2024-03-08T05:14:09;51.30;;;28.57;;
37453;SDS011;23315;52.078;4.756;2024-03-08T05:16:35;50.43;;;28.87;;
37453;SDS011;23315;52.078;4.756;2024-03-08T05:19:01;50.27;;;28.23;;
37453;SDS011;23315;52.078;4.756;2024-03-08T05:21:29;42.73;;;25.77;;
37453;SDS011;23315;52.078;4.756;2024-03-08T05:23:55;48.63;;;27.20;;
37453;SDS011;23315;52.078;4.756;2024-03-08T05:26:20;50.63;;;28.95;;
37453;SDS011;23315;52.078;4.756;2024-03-08T05:28:47;47.77;;;27.50;;
37453;SDS011;23315;52.078;4.756;2024-03-08T05:31:22;55.87;;;27.90;;
37453;SDS011;23315;52.078;4.756;2024-03-08T05:33:48;53.53;;;27.97;;
37453;SDS011;23315;52.078;4.756;2024-03-08T05:36:14;48.93;;;26.97;;
37453;SDS011;23315;52.078;4.756;2024-03-08T05:38:44;49.87;;;28.17;;
37453;SDS011;23315;52.078;4.756;2024-03-08T05:41:10;52.23;;;28.37;;
37453;SDS011;23315;52.078;4.756;2024-03-08T05:43:40;49.30;;;28.27;;
37453;SDS011;23315;52.078;4.756;2024-03-08T05:46:05;50.73;;;28.47;;
37453;SDS011;23315;52.078;4.756;2024-03-08T05:48:31;48.47;;;26.83;;
37453;SDS011;23315;52.078;4.756;2024-03-08T05:51:02;48.37;;;28.40;;
37453;SDS011;23315;52.078;4.756;2024-03-08T05:53:27;52.57;;;26.93;;
37453;SDS011;23315;52.078;4.756;2024-03-08T05:55:55;52.30;;;29.50;;
37453;SDS011;23315;52.078;4.756;2024-03-08T05:58:21;52.10;;;27.60;;
37453;SDS011;23315;52.078;4.756;2024-03-08T06:00:46;56.03;;;29.33;;
37453;SDS011;23315;52.078;4.756;2024-03-08T06:03:11;51.43;;;29.73;;
37453;SDS011;23315;52.078;4.756;2024-03-08T06:05:37;51.80;;;29.30;;
37453;SDS011;23315;52.078;4.756;2024-03-08T06:08:07;50.97;;;27.50;;
37453;SDS011;23315;52.078;4.756;2024-03-08T06:10:33;49.87;;;28.73;;
37453;SDS011;23315;52.078;4.756;2024-03-08T06:12:58;52.07;;;28.43;;
37453;SDS011;23315;52.078;4.756;2024-03-08T06:15:24;48.77;;;28.53;;
37453;SDS011;23315;52.078;4.756;2024-03-08T06:17:50;48.83;;;27.77;;
37453;SDS011;23315;52.078;4.756;2024-03-08T06:20:17;48.50;;;27.93;;
37453;SDS011;23315;52.078;4.756;2024-03-08T06:22:43;53.77;;;29.97;;
37453;SDS011;23315;52.078;4.756;2024-03-08T06:25:10;54.13;;;29.87;;
37453;SDS011;23315;52.078;4.756;2024-03-08T06:27:38;48.13;;;29.33;;
37453;SDS011;23315;52.078;4.756;2024-03-08T06:30:05;57.30;;;31.13;;
37453;SDS011;23315;52.078;4.756;2024-03-08T06:32:31;50.80;;;29.90;;
37453;SDS011;23315;52.078;4.756;2024-03-08T06:35:00;49.90;;;27.40;;
37453;SDS011;23315;52.078;4.756;2024-03-08T06:37:26;56.27;;;30.00;;
37453;SDS011;23315;52.078;4.756;2024-03-08T06:39:51;54.10;;;30.60;;
37453;SDS011;23315;52.078;4.756;2024-03-08T06:42:19;52.27;;;30.80;;
37453;SDS011;23315;52.078;4.756;2024-03-08T06:44:44;49.37;;;28.27;;
37453;SDS011;23315;52.078;4.756;2024-03-08T06:47:14;46.60;;;27.10;;
37453;SDS011;23315;52.078;4.756;2024-03-08T06:49:41;50.73;;;28.97;;
37453;SDS011;23315;52.078;4.756;2024-03-08T06:52:09;54.57;;;29.53;;
37453;SDS011;23315;52.078;4.756;2024-03-08T06:54:35;52.93;;;30.20;;
37453;SDS011;23315;52.078;4.756;2024-03-08T06:57:01;52.07;;;29.33;;
37453;SDS011;23315;52.078;4.756;2024-03-08T06:59:28;53.67;;;30.23;;
37453;SDS011;23315;52.078;4.756;2024-03-08T07:01:53;51.20;;;29.70;;
37453;SDS011;23315;52.078;4.756;2024-03-08T07:04:19;48.20;;;29.10;;
37453;SDS011;23315;52.078;4.756;2024-03-08T07:06:45;47.77;;;27.63;;
37453;SDS011;23315;52.078;4.756;2024-03-08T07:09:10;55.70;;;30.93;;
37453;SDS011;23315;52.078;4.756;2024-03-08T07:11:36;55.00;;;30.35;;
37453;SDS011;23315;52.078;4.756;2024-03-08T07:14:02;54.43;;;30.90;;
37453;SDS011;23315;52.078;4.756;2024-03-08T07:16:30;48.57;;;27.47;;
37453;SDS011;23315;52.078;4.756;2024-03-08T07:18:56;47.97;;;30.03;;
37453;SDS011;23315;52.078;4.756;2024-03-08T07:21:23;54.80;;;31.40;;
37453;SDS011;23315;52.078;4.756;2024-03-08T07:23:49;50.08;;;29.65;;
37453;SDS011;23315;52.078;4.756;2024-03-08T07:26:26;49.70;;;29.90;;
37453;SDS011;23315;52.078;4.756;2024-03-08T07:28:52;51.67;;;30.05;;
37453;SDS011;23315;52.078;4.756;2024-03-08T07:31:20;43.95;;;27.40;;
37453;SDS011;23315;52.078;4.756;2024-03-08T07:33:59;44.10;;;27.23;;
37453;SDS011;23315;52.078;4.756;2024-03-08T07:36:25;51.80;;;27.73;;
37453;SDS011;23315;52.078;4.756;2024-03-08T07:38:50;41.47;;;25.70;;
37453;SDS011;23315;52.078;4.756;2024-03-08T07:41:16;39.17;;;25.70;;
37453;SDS011;23315;52.078;4.756;2024-03-08T07:43:41;39.63;;;25.30;;
37453;SDS011;23315;52.078;4.756;2024-03-08T07:46:07;39.45;;;24.77;;
37453;SDS011;23315;52.078;4.756;2024-03-08T07:48:35;39.97;;;25.67;;
37453;SDS011;23315;52.078;4.756;2024-03-08T07:51:01;43.22;;;25.45;;
37453;SDS011;23315;52.078;4.756;2024-03-08T07:53:27;39.13;;;24.42;;
37453;SDS011;23315;52.078;4.756;2024-03-08T07:55:53;42.10;;;26.15;;
37453;SDS011;23315;52.078;4.756;2024-03-08T07:58:19;38.55;;;24.45;;
37453;SDS011;23315;52.078;4.756;2024-03-08T08:00:44;38.42;;;23.67;;
37453;SDS011;23315;52.078;4.756;2024-03-08T08:03:09;38.80;;;24.90;;
37453;SDS011;23315;52.078;4.756;2024-03-08T08:05:35;34.30;;;23.92;;
37453;SDS011;23315;52.078;4.756;2024-03-08T08:08:02;37.60;;;24.40;;
37453;SDS011;23315;52.078;4.756;2024-03-08T08:10:31;37.42;;;25.58;;
37453;SDS011;23315;52.078;4.756;2024-03-08T08:12:57;35.00;;;23.83;;
37453;SDS011;23315;52.078;4.756;2024-03-08T08:15:23;36.35;;;25.02;;
37453;SDS011;23315;52.078;4.756;2024-03-08T08:17:49;37.95;;;23.88;;
37453;SDS011;23315;52.078;4.756;2024-03-08T08:20:14;40.47;;;24.42;;
37453;SDS011;23315;52.078;4.756;2024-03-08T08:22:40;41.00;;;24.83;;
37453;SDS011;23315;52.078;4.756;2024-03-08T08:25:06;36.72;;;23.73;;
37453;SDS011;23315;52.078;4.756;2024-03-08T08:27:32;35.22;;;22.88;;
37453;SDS011;23315;52.078;4.756;2024-03-08T08:29:58;34.70;;;23.65;;
37453;SDS011;23315;52.078;4.756;2024-03-08T08:32:23;37.92;;;24.63;;
37453;SDS011;23315;52.078;4.756;2024-03-08T08:34:48;38.47;;;24.90;;
37453;SDS011;23315;52.078;4.756;2024-03-08T08:37:14;37.17;;;24.25;;
37453;SDS011;23315;52.078;4.756;2024-03-08T08:39:41;36.50;;;23.67;;
37453;SDS011;23315;52.078;4.756;2024-03-08T08:42:06;33.72;;;22.38;;
37453;SDS011;23315;52.078;4.756;2024-03-08T08:44:34;36.42;;;23.92;;
37453;SDS011;23315;52.078;4.756;2024-03-08T08:47:00;38.42;;;23.65;;
37453;SDS011;23315;52.078;4.756;2024-03-08T08:49:25;35.55;;;22.65;;
37453;SDS011;23315;52.078;4.756;2024-03-08T08:51:51;33.50;;;21.88;;
37453;SDS011;23315;52.078;4.756;2024-03-08T08:54:17;34.67;;;22.90;;
37453;SDS011;23315;52.078;4.756;2024-03-08T08:56:42;34.10;;;23.42;;
37453;SDS011;23315;52.078;4.756;2024-03-08T08:59:12;36.53;;;23.50;;
37453;SDS011;23315;52.078;4.756;2024-03-08T09:01:44;33.75;;;22.92;;
37453;SDS011;23315;52.078;4.756;2024-03-08T09:04:12;38.75;;;22.80;;
37453;SDS011;23315;52.078;4.756;2024-03-08T09:06:37;37.17;;;24.17;;
37453;SDS011;23315;52.078;4.756;2024-03-08T09:09:03;34.80;;;23.10;;
37453;SDS011;23315;52.078;4.756;2024-03-08T09:11:30;38.58;;;24.55;;
37453;SDS011;23315;52.078;4.756;2024-03-08T09:13:55;35.67;;;23.38;;
37453;SDS011;23315;52.078;4.756;2024-03-08T09:16:20;39.42;;;25.52;;
37453;SDS011;23315;52.078;4.756;2024-03-08T09:18:46;37.65;;;24.90;;
37453;SDS011;23315;52.078;4.756;2024-03-08T09:21:13;35.45;;;23.60;;
37453;SDS011;23315;52.078;4.756;2024-03-08T09:23:39;37.17;;;25.50;;
37453;SDS011;23315;52.078;4.756;2024-03-08T09:26:05;33.25;;;23.13;;
37453;SDS011;23315;52.078;4.756;2024-03-08T09:28:34;42.72;;;23.60;;
37453;SDS011;23315;52.078;4.756;2024-03-08T09:30:59;34.42;;;22.42;;
37453;SDS011;23315;52.078;4.756;2024-03-08T09:33:26;37.15;;;24.15;;
37453;SDS011;23315;52.078;4.756;2024-03-08T09:35:53;38.40;;;23.70;;
37453;SDS011;23315;52.078;4.756;2024-03-08T09:38:19;34.22;;;23.40;;
37453;SDS011;23315;52.078;4.756;2024-03-08T09:40:45;33.80;;;22.02;;
37453;SDS011;23315;52.078;4.756;2024-03-08T09:43:11;39.70;;;24.63;;
37453;SDS011;23315;52.078;4.756;2024-03-08T09:45:39;33.78;;;23.48;;
37453;SDS011;23315;52.078;4.756;2024-03-08T09:48:10;37.72;;;25.10;;
37453;SDS011;23315;52.078;4.756;2024-03-08T09:50:40;39.22;;;23.70;;
37453;SDS011;23315;52.078;4.756;2024-03-08T09:53:06;34.03;;;23.70;;
37453;SDS011;23315;52.078;4.756;2024-03-08T09:55:34;36.85;;;23.88;;
37453;SDS011;23315;52.078;4.756;2024-03-08T09:58:06;34.72;;;23.27;;
37453;SDS011;23315;52.078;4.756;2024-03-08T10:00:46;37.85;;;23.40;;
37453;SDS011;23315;52.078;4.756;2024-03-08T10:03:12;41.03;;;23.95;;
37453;SDS011;23315;52.078;4.756;2024-03-08T10:05:39;32.15;;;22.23;;
37453;SDS011;23315;52.078;4.756;2024-03-08T10:08:06;39.85;;;24.02;;
37453;SDS011;23315;52.078;4.756;2024-03-08T10:10:33;38.30;;;24.17;;
37453;SDS011;23315;52.078;4.756;2024-03-08T10:13:02;36.83;;;22.98;;
37453;SDS011;23315;52.078;4.756;2024-03-08T10:15:31;37.40;;;23.15;;
37453;SDS011;23315;52.078;4.756;2024-03-08T10:17:58;36.78;;;24.35;;
37453;SDS011;23315;52.078;4.756;2024-03-08T10:20:23;36.08;;;22.95;;
37453;SDS011;23315;52.078;4.756;2024-03-08T10:22:48;33.22;;;23.05;;
37453;SDS011;23315;52.078;4.756;2024-03-08T10:25:14;35.95;;;24.83;;
37453;SDS011;23315;52.078;4.756;2024-03-08T10:27:39;39.47;;;23.17;;
37453;SDS011;23315;52.078;4.756;2024-03-08T10:30:10;35.80;;;24.17;;
37453;SDS011;23315;52.078;4.756;2024-03-08T10:32:38;42.25;;;25.05;;
37453;SDS011;23315;52.078;4.756;2024-03-08T10:35:04;40.40;;;24.30;;
37453;SDS011;23315;52.078;4.756;2024-03-08T10:37:29;37.88;;;23.30;;
37453;SDS011;23315;52.078;4.756;2024-03-08T10:42:35;40.08;;;23.92;;
37453;SDS011;23315;52.078;4.756;2024-03-08T10:45:06;39.60;;;25.38;;
37453;SDS011;23315;52.078;4.756;2024-03-08T10:47:39;38.40;;;24.08;;
37453;SDS011;23315;52.078;4.756;2024-03-08T10:50:39;37.10;;;22.70;;
37453;SDS011;23315;52.078;4.756;2024-03-08T10:52:59;37.05;;;23.38;;
37453;SDS011;23315;52.078;4.756;2024-03-08T10:55:26;41.20;;;24.92;;
37453;SDS011;23315;52.078;4.756;2024-03-08T10:57:53;37.90;;;24.02;;
37453;SDS011;23315;52.078;4.756;2024-03-08T11:00:19;37.90;;;23.35;;
37453;SDS011;23315;52.078;4.756;2024-03-08T11:02:51;33.13;;;22.33;;
37453;SDS011;23315;52.078;4.756;2024-03-08T11:05:38;35.25;;;22.23;;
37453;SDS011;23315;52.078;4.756;2024-03-08T11:08:19;33.60;;;22.50;;
37453;SDS011;23315;52.078;4.756;2024-03-08T11:19:07;35.35;;;22.85;;
37453;SDS011;23315;52.078;4.756;2024-03-08T11:21:56;38.67;;;23.48;;
37453;SDS011;23315;52.078;4.756;2024-03-08T11:24:25;36.13;;;24.02;;
37453;SDS011;23315;52.078;4.756;2024-03-08T11:26:54;41.97;;;23.52;;
37453;SDS011;23315;52.078;4.756;2024-03-08T11:32:03;32.83;;;22.17;;
37453;SDS011;23315;52.078;4.756;2024-03-08T11:34:29;34.25;;;23.17;;
37453;SDS011;23315;52.078;4.756;2024-03-08T11:36:55;35.92;;;21.77;;
37453;SDS011;23315;52.078;4.756;2024-03-08T11:39:21;35.17;;;22.52;;
37453;SDS011;23315;52.078;4.756;2024-03-08T11:41:49;31.95;;;22.10;;
37453;SDS011;23315;52.078;4.756;2024-03-08T11:44:14;39.10;;;24.55;;
37453;SDS011;23315;52.078;4.756;2024-03-08T11:46:41;38.83;;;24.27;;
37453;SDS011;23315;52.078;4.756;2024-03-08T11:49:11;35.30;;;23.40;;
37453;SDS011;23315;52.078;4.756;2024-03-08T11:51:37;35.35;;;22.92;;
37453;SDS011;23315;52.078;4.756;2024-03-08T11:54:03;38.83;;;23.98;;
37453;SDS011;23315;52.078;4.756;2024-03-08T11:56:28;37.20;;;24.42;;
37453;SDS011;23315;52.078;4.756;2024-03-08T11:58:56;35.17;;;22.23;;
37453;SDS011;23315;52.078;4.756;2024-03-08T12:01:22;37.03;;;24.73;;
37453;SDS011;23315;52.078;4.756;2024-03-08T12:03:57;35.28;;;23.52;;
37453;SDS011;23315;52.078;4.756;2024-03-08T12:06:26;35.30;;;23.25;;
37453;SDS011;23315;52.078;4.756;2024-03-08T12:08:52;39.80;;;23.65;;
37453;SDS011;23315;52.078;4.756;2024-03-08T12:11:18;38.00;;;23.35;;
37453;SDS011;23315;52.078;4.756;2024-03-08T12:13:48;39.00;;;24.48;;
37453;SDS011;23315;52.078;4.756;2024-03-08T12:16:19;37.00;;;23.17;;
37453;SDS011;23315;52.078;4.756;2024-03-08T12:18:46;38.88;;;24.00;;
37453;SDS011;23315;52.078;4.756;2024-03-08T12:21:13;41.42;;;23.38;;
37453;SDS011;23315;52.078;4.756;2024-03-08T12:23:42;33.65;;;22.15;;
37453;SDS011;23315;52.078;4.756;2024-03-08T12:26:14;34.50;;;23.83;;
37453;SDS011;23315;52.078;4.756;2024-03-08T12:28:43;36.13;;;23.42;;
37453;SDS011;23315;52.078;4.756;2024-03-08T12:31:11;34.20;;;23.10;;
37453;SDS011;23315;52.078;4.756;2024-03-08T12:33:46;35.47;;;23.05;;
37453;SDS011;23315;52.078;4.756;2024-03-08T12:36:17;32.40;;;22.58;;
37453;SDS011;23315;52.078;4.756;2024-03-08T12:38:43;34.00;;;22.58;;
37453;SDS011;23315;52.078;4.756;2024-03-08T12:41:13;38.17;;;23.42;;
37453;SDS011;23315;52.078;4.756;2024-03-08T12:43:42;32.70;;;22.05;;
37453;SDS011;23315;52.078;4.756;2024-03-08T12:46:13;38.08;;;23.58;;
37453;SDS011;23315;52.078;4.756;2024-03-08T12:48:42;36.83;;;22.00;;
37453;SDS011;23315;52.078;4.756;2024-03-08T12:51:12;37.05;;;23.50;;
37453;SDS011;23315;52.078;4.756;2024-03-08T12:53:38;34.65;;;21.00;;
37453;SDS011;23315;52.078;4.756;2024-03-08T12:56:05;37.38;;;23.65;;
37453;SDS011;23315;52.078;4.756;2024-03-08T12:58:33;35.75;;;23.42;;
37453;SDS011;23315;52.078;4.756;2024-03-08T13:00:59;36.03;;;23.02;;
37453;SDS011;23315;52.078;4.756;2024-03-08T13:03:25;33.10;;;22.17;;
37453;SDS011;23315;52.078;4.756;2024-03-08T13:05:50;33.92;;;21.98;;
37453;SDS011;23315;52.078;4.756;2024-03-08T13:08:16;33.75;;;22.35;;
37453;SDS011;23315;52.078;4.756;2024-03-08T13:10:43;37.58;;;23.63;;
37453;SDS011;23315;52.078;4.756;2024-03-08T13:13:12;33.55;;;22.02;;
37453;SDS011;23315;52.078;4.756;2024-03-08T13:15:40;34.50;;;22.92;;
37453;SDS011;23315;52.078;4.756;2024-03-08T13:18:06;32.92;;;20.67;;
37453;SDS011;23315;52.078;4.756;2024-03-08T13:20:34;33.38;;;20.88;;
37453;SDS011;23315;52.078;4.756;2024-03-08T13:23:02;33.15;;;21.60;;
37453;SDS011;23315;52.078;4.756;2024-03-08T13:25:30;33.20;;;21.27;;
37453;SDS011;23315;52.078;4.756;2024-03-08T13:27:56;33.00;;;21.08;;
37453;SDS011;23315;52.078;4.756;2024-03-08T13:30:24;33.85;;;22.67;;
37453;SDS011;23315;52.078;4.756;2024-03-08T13:32:51;32.53;;;20.95;;
37453;SDS011;23315;52.078;4.756;2024-03-08T13:35:18;35.15;;;22.08;;
37453;SDS011;23315;52.078;4.756;2024-03-08T13:37:49;32.65;;;21.85;;
37453;SDS011;23315;52.078;4.756;2024-03-08T13:40:15;31.70;;;21.33;;
37453;SDS011;23315;52.078;4.756;2024-03-08T13:42:43;37.22;;;23.40;;
37453;SDS011;23315;52.078;4.756;2024-03-08T13:45:09;36.88;;;23.20;;
37453;SDS011;23315;52.078;4.756;2024-03-08T13:47:39;34.53;;;22.90;;
37453;SDS011;23315;52.078;4.756;2024-03-08T13:50:06;34.95;;;22.10;;
37453;SDS011;23315;52.078;4.756;2024-03-08T13:52:32;36.70;;;22.88;;
37453;SDS011;23315;52.078;4.756;2024-03-08T13:54:59;34.22;;;22.58;;
37453;SDS011;23315;52.078;4.756;2024-03-08T13:57:25;35.15;;;22.13;;
37453;SDS011;23315;52.078;4.756;2024-03-08T13:59:52;37.15;;;23.17;;
37453;SDS011;23315;52.078;4.756;2024-03-08T14:02:17;35.08;;;22.75;;
37453;SDS011;23315;52.078;4.756;2024-03-08T14:04:43;42.33;;;24.27;;
37453;SDS011;23315;52.078;4.756;2024-03-08T14:07:08;38.13;;;22.70;;
37453;SDS011;23315;52.078;4.756;2024-03-08T14:09:34;35.83;;;22.90;;
37453;SDS011;23315;52.078;4.756;2024-03-08T14:12:02;33.72;;;21.92;;
37453;SDS011;23315;52.078;4.756;2024-03-08T14:14:32;34.67;;;20.80;;
37453;SDS011;23315;52.078;4.756;2024-03-08T14:17:00;37.50;;;23.45;;
37453;SDS011;23315;52.078;4.756;2024-03-08T14:19:27;33.25;;;22.17;;
37453;SDS011;23315;52.078;4.756;2024-03-08T14:21:52;36.15;;;23.23;;
37453;SDS011;23315;52.078;4.756;2024-03-08T14:24:18;36.50;;;22.17;;
37453;SDS011;23315;52.078;4.756;2024-03-08T14:26:44;37.00;;;23.67;;
37453;SDS011;23315;52.078;4.756;2024-03-08T14:29:09;35.47;;;23.05;;
37453;SDS011;23315;52.078;4.756;2024-03-08T14:31:35;36.75;;;22.80;;
37453;SDS011;23315;52.078;4.756;2024-03-08T14:34:03;37.25;;;22.77;;
37453;SDS011;23315;52.078;4.756;2024-03-08T14:36:29;37.60;;;23.48;;